Time;durP1;ratioP1;P1;durP2;ratioP2;P2;SDS_P1;SDS_P2;PMS_P1;PMS_P2;Temp;Humidity;BMP_temperature;BMP_pressure;BME280_temperature;BME280_humidity;BME280_pressure;Samples;Min_cycle;Max_cycle;Signal;HPM_P1;HPM_P2
2021/04/04 00:00:23;;;;;;;6.40;1.50;;;4.60;91.30;;;;;;4951719;29;20031;-68
2021/04/04 00:02:48;;;;;;;4.85;1.40;;;4.60;91.20;;;;;;4951835;28;20027;-68
2021/04/04 00:05:15;;;;;;;4.07;1.35;;;4.50;91.90;;;;;;4951610;29;20034;-68
2021/04/04 00:07:41;;;;;;;6.75;2.28;;;4.40;93.00;;;;;;4951733;28;20028;-68
2021/04/04 00:10:09;;;;;;;5.38;1.42;;;4.50;92.30;;;;;;4951662;28;20106;-68
2021/04/04 00:12:35;;;;;;;5.00;1.88;;;4.50;92.60;;;;;;4951507;28;20027;-68
2021/04/04 00:15:02;;;;;;;4.78;1.50;;;4.50;92.60;;;;;;4951423;28;20050;-68
2021/04/04 00:17:28;;;;;;;5.03;1.40;;;4.50;92.90;;;;;;4951342;29;20035;-68
2021/04/04 00:19:53;;;;;;;3.72;1.20;;;4.40;93.30;;;;;;4951409;29;20038;-68
2021/04/04 00:22:19;;;;;;;3.30;1.20;;;4.50;92.60;;;;;;4951127;29;20379;-68
2021/04/04 00:24:44;;;;;;;7.50;1.77;;;4.50;92.80;;;;;;4951441;28;20053;-68
2021/04/04 00:27:10;;;;;;;4.95;1.40;;;4.50;92.80;;;;;;4951281;29;20110;-69
2021/04/04 00:29:35;;;;;;;3.58;1.20;;;4.40;92.80;;;;;;4951238;29;20059;-68
2021/04/04 00:32:01;;;;;;;2.47;1.05;;;4.40;92.80;;;;;;4951051;29;20460;-69
2021/04/04 00:34:26;;;;;;;5.53;1.30;;;4.40;92.60;;;;;;4951309;29;20229;-69
2021/04/04 00:36:52;;;;;;;3.90;1.20;;;4.30;93.20;;;;;;4951338;29;20023;-68
2021/04/04 00:39:17;;;;;;;5.38;1.73;;;4.20;92.70;;;;;;4951291;29;20059;-68
2021/04/04 00:41:44;;;;;;;5.47;1.25;;;4.10;94.00;;;;;;4950980;28;20027;-68
2021/04/04 00:44:10;;;;;;;5.78;1.38;;;4.10;93.30;;;;;;4951155;29;20034;-68
2021/04/04 00:46:37;;;;;;;2.75;1.08;;;4.10;93.00;;;;;;4951090;28;20084;-68
2021/04/04 00:49:03;;;;;;;3.17;1.23;;;4.00;93.70;;;;;;4951257;29;20110;-68
2021/04/04 00:51:30;;;;;;;6.85;1.70;;;3.80;94.70;;;;;;4951137;29;20434;-68
2021/04/04 00:53:56;;;;;;;5.40;1.60;;;3.70;94.40;;;;;;4950948;29;20524;-67
2021/04/04 00:56:22;;;;;;;6.38;1.85;;;3.60;94.40;;;;;;4950941;29;20027;-68
2021/04/04 00:58:48;;;;;;;6.18;1.60;;;3.60;93.70;;;;;;4950821;29;20030;-68
2021/04/04 01:01:14;;;;;;;5.00;1.60;;;3.60;93.70;;;;;;4950700;29;20055;-68
2021/04/04 01:03:39;;;;;;;4.43;1.75;;;3.70;94.00;;;;;;4950719;29;20116;-68
2021/04/04 01:06:07;;;;;;;4.00;1.55;;;3.60;94.20;;;;;;4950787;29;20180;-67
2021/04/04 01:08:35;;;;;;;3.92;1.17;;;3.70;94.10;;;;;;4950499;28;20060;-68
2021/04/04 01:11:01;;;;;;;4.82;1.58;;;3.50;94.50;;;;;;4950713;29;20482;-69
2021/04/04 01:13:44;;;;;;;4.80;1.90;;;3.50;95.00;;;;;;4950335;29;20089;-67
2021/04/04 01:16:26;;;;;;;3.92;1.45;;;3.40;94.80;;;;;;5033603;28;20027;-68
2021/04/04 01:19:05;;;;;;;5.88;1.75;;;3.20;95.00;;;;;;4950523;28;20072;-67
2021/04/04 01:22:03;;;;;;;3.03;1.20;;;3.10;94.90;;;;;;4950273;29;20085;-68
2021/04/04 01:24:43;;;;;;;6.85;1.98;;;2.90;95.10;;;;;;5033066;28;20046;-67
2021/04/04 01:27:20;;;;;;;4.45;1.60;;;2.90;95.10;;;;;;4950468;28;20027;-67
2021/04/04 01:29:48;;;;;;;3.80;1.20;;;2.80;94.70;;;;;;4950454;29;20121;-68
2021/04/04 01:32:14;;;;;;;8.13;1.67;;;2.70;94.70;;;;;;4950011;28;20041;-68
2021/04/04 01:34:40;;;;;;;4.90;1.50;;;2.70;94.50;;;;;;4950356;28;20039;-67
2021/04/04 01:37:09;;;;;;;6.05;1.40;;;2.60;94.80;;;;;;4950234;29;20031;-68
2021/04/04 01:39:48;;;;;;;4.30;1.33;;;2.50;95.00;;;;;;4950366;28;20034;-68
2021/04/04 01:42:15;;;;;;;6.03;1.40;;;2.50;94.70;;;;;;4949983;29;20504;-68
2021/04/04 01:44:43;;;;;;;6.13;2.35;;;2.40;94.70;;;;;;4950041;28;20528;-67
2021/04/04 01:47:10;;;;;;;5.15;1.38;;;2.40;94.90;;;;;;4950060;28;20028;-67
2021/04/04 01:49:38;;;;;;;6.35;1.90;;;2.20;95.00;;;;;;5032637;28;20031;-67
2021/04/04 01:52:05;;;;;;;5.53;2.08;;;2.20;95.20;;;;;;5032418;28;20042;-68
2021/04/04 01:54:31;;;;;;;6.57;1.60;;;2.20;95.00;;;;;;4950035;28;20035;-68
2021/04/04 01:56:58;;;;;;;3.88;1.30;;;2.20;94.10;;;;;;4949958;28;20031;-67
2021/04/04 01:59:24;;;;;;;3.80;1.48;;;2.10;95.30;;;;;;4950062;29;20118;-68
2021/04/04 02:01:51;;;;;;;5.70;1.50;;;1.90;95.60;;;;;;4949844;29;20477;-68
2021/04/04 02:04:17;;;;;;;4.18;1.33;;;1.90;95.30;;;;;;4949899;29;20126;-67
2021/04/04 02:06:43;;;;;;;3.45;1.50;;;1.90;95.20;;;;;;4950075;29;20126;-68
2021/04/04 02:09:11;;;;;;;4.32;1.40;;;1.90;95.40;;;;;;4949946;29;20457;-67
2021/04/04 02:11:38;;;;;;;5.10;1.88;;;1.80;95.50;;;;;;4949657;29;20024;-67
2021/04/04 02:14:08;;;;;;;5.25;1.83;;;1.70;95.70;;;;;;4949775;28;20478;-68
2021/04/04 02:16:36;;;;;;;5.38;2.05;;;1.70;95.80;;;;;;4949812;28;20035;-68
2021/04/04 02:19:03;;;;;;;4.15;1.67;;;1.60;95.80;;;;;;4949856;29;20043;-67
2021/04/04 02:21:29;;;;;;;3.75;1.60;;;1.50;96.10;;;;;;4952910;29;20102;-68
2021/04/04 02:23:55;;;;;;;5.97;1.85;;;1.40;96.20;;;;;;4953166;29;20106;-68
2021/04/04 02:26:21;;;;;;;5.70;1.60;;;1.40;96.10;;;;;;4953131;28;20038;-68
2021/04/04 02:28:50;;;;;;;5.60;1.77;;;1.40;96.10;;;;;;5036263;28;20460;-68
2021/04/04 02:31:17;;;;;;;4.78;1.85;;;1.40;95.60;;;;;;5019595;28;20497;-67
2021/04/04 02:34:08;;;;;;;6.30;1.40;;;1.20;96.20;;;;;;4953120;28;20031;-68
2021/04/04 02:36:34;;;;;;;4.75;2.00;;;1.30;96.10;;;;;;4953060;28;20086;-67
2021/04/04 02:39:05;;;;;;;7.55;1.73;;;1.40;96.30;;;;;;4952974;29;20039;-68
2021/04/04 02:41:31;;;;;;;6.32;2.10;;;1.30;96.50;;;;;;5035807;28;20067;-68
2021/04/04 02:43:59;;;;;;;4.25;1.70;;;1.30;96.40;;;;;;4953410;29;20387;-68
2021/04/04 02:46:26;;;;;;;5.32;1.90;;;1.20;96.40;;;;;;4952784;29;20069;-68
2021/04/04 02:48:58;;;;;;;3.88;1.48;;;1.20;96.60;;;;;;4952823;29;20028;-68
2021/04/04 02:51:51;;;;;;;5.72;1.60;;;1.10;96.60;;;;;;4952497;28;20059;-67
2021/04/04 02:54:22;;;;;;;5.50;1.70;;;1.10;96.60;;;;;;4953337;28;20040;-68
2021/04/04 02:56:49;;;;;;;5.80;1.80;;;1.10;96.80;;;;;;4951791;28;20028;-67
2021/04/04 02:59:24;;;;;;;4.50;1.67;;;1.00;96.80;;;;;;4952587;29;20031;-68
2021/04/04 03:01:51;;;;;;;8.20;2.00;;;1.00;96.90;;;;;;4952392;29;20029;-68
2021/04/04 03:04:18;;;;;;;6.47;2.13;;;1.00;97.00;;;;;;4952570;29;20030;-68
2021/04/04 03:06:45;;;;;;;8.20;2.20;;;1.00;97.00;;;;;;4952583;28;20039;-68
2021/04/04 03:09:12;;;;;;;5.15;1.80;;;0.90;97.00;;;;;;4952546;29;20089;-67
2021/04/04 03:11:39;;;;;;;4.53;1.58;;;0.80;97.10;;;;;;4952022;29;20031;-68
2021/04/04 03:14:08;;;;;;;6.55;2.60;;;0.80;97.20;;;;;;4952400;29;20030;-68
2021/04/04 03:16:35;;;;;;;4.03;1.65;;;0.80;97.10;;;;;;4952216;29;20074;-68
2021/04/04 03:19:02;;;;;;;7.15;1.80;;;0.80;97.30;;;;;;4952432;29;20111;-67
2021/04/04 03:21:30;;;;;;;8.20;2.20;;;0.80;97.30;;;;;;4952187;28;20090;-68
2021/04/04 03:23:57;;;;;;;4.85;1.95;;;0.70;96.70;;;;;;4952318;29;20028;-68
2021/04/04 03:26:24;;;;;;;6.70;2.05;;;0.80;97.30;;;;;;4952238;29;20034;-68
2021/04/04 03:28:50;;;;;;;5.97;1.80;;;0.70;97.50;;;;;;4952262;29;20051;-68
2021/04/04 03:31:16;;;;;;;7.28;2.00;;;0.60;97.70;;;;;;4951995;28;20142;-68
2021/04/04 03:33:43;;;;;;;5.38;1.85;;;0.50;97.90;;;;;;4952199;29;20612;-68
2021/04/04 03:36:15;;;;;;;4.85;1.80;;;0.40;97.90;;;;;;4952079;29;20031;-68
2021/04/04 03:38:42;;;;;;;5.95;2.15;;;0.50;97.70;;;;;;4951933;29;20029;-68
2021/04/04 03:41:09;;;;;;;7.80;2.13;;;0.50;98.30;;;;;;4951968;28;20049;-68
2021/04/04 03:43:37;;;;;;;5.72;2.05;;;0.40;97.80;;;;;;4951894;29;20054;-68
2021/04/04 03:46:06;;;;;;;5.53;1.98;;;0.40;98.00;;;;;;4951903;29;20039;-67
2021/04/04 03:48:34;;;;;;;4.47;1.73;;;0.40;97.90;;;;;;4951869;29;20493;-68
2021/04/04 03:51:02;;;;;;;10.07;2.20;;;0.40;98.30;;;;;;4952008;29;20539;-68
2021/04/04 03:53:29;;;;;;;7.38;2.05;;;0.30;98.50;;;;;;4951436;29;20428;-68
2021/04/04 03:55:59;;;;;;;6.03;2.03;;;0.40;98.20;;;;;;4951827;28;20066;-68
2021/04/04 03:58:26;;;;;;;7.28;1.90;;;0.40;98.00;;;;;;4951905;29;20031;-68
2021/04/04 04:00:54;;;;;;;7.10;2.20;;;0.30;98.50;;;;;;5034626;28;20421;-68
2021/04/04 04:03:21;;;;;;;6.93;2.40;;;0.30;98.40;;;;;;4951487;29;20085;-68
2021/04/04 04:05:48;;;;;;;7.20;2.17;;;0.20;98.50;;;;;;4951591;29;20428;-68
2021/04/04 04:08:15;;;;;;;7.57;2.47;;;0.10;99.10;;;;;;4951595;29;20047;-68
2021/04/04 04:10:43;;;;;;;7.32;2.50;;;0.10;98.70;;;;;;4951569;29;20374;-68
2021/04/04 04:13:09;;;;;;;5.50;2.13;;;-0.10;99.00;;;;;;4951216;28;20023;-68
2021/04/04 04:15:35;;;;;;;5.15;2.10;;;0.00;98.90;;;;;;4951523;29;20106;-68
2021/04/04 04:18:03;;;;;;;6.90;2.38;;;0.00;98.90;;;;;;4951564;28;20035;-68
2021/04/04 04:20:29;;;;;;;6.43;2.00;;;0.10;98.70;;;;;;4951313;29;20027;-68
2021/04/04 04:22:57;;;;;;;6.13;2.10;;;0.20;98.70;;;;;;4951249;29;20561;-68
2021/04/04 04:25:26;;;;;;;6.90;3.20;;;0.20;99.00;;;;;;4951386;29;20024;-68
2021/04/04 04:27:52;;;;;;;7.90;2.75;;;0.20;98.80;;;;;;4951260;28;20019;-67
2021/04/04 04:30:18;;;;;;;9.70;3.15;;;0.20;98.70;;;;;;4951305;29;20020;-68
2021/04/04 04:32:45;;;;;;;6.68;2.60;;;0.30;98.40;;;;;;4951058;29;20031;-67
2021/04/04 04:35:12;;;;;;;7.25;2.30;;;0.20;98.40;;;;;;4951210;29;20034;-68
2021/04/04 04:37:39;;;;;;;6.35;2.50;;;0.20;98.50;;;;;;4951068;28;20110;-68
2021/04/04 04:40:07;;;;;;;6.00;2.60;;;0.10;98.60;;;;;;4951122;29;20088;-68
2021/04/04 04:42:35;;;;;;;8.07;2.30;;;0.10;98.60;;;;;;4950346;28;20042;-67
2021/04/04 04:45:02;;;;;;;6.30;2.17;;;0.00;98.90;;;;;;4951494;29;20036;-67
2021/04/04 04:47:29;;;;;;;9.10;2.90;;;0.00;99.30;;;;;;4950817;29;20081;-67
2021/04/04 04:49:55;;;;;;;8.88;3.10;;;-0.20;99.90;;;;;;4951161;29;20536;-68
2021/04/04 04:52:23;;;;;;;7.85;3.03;;;-0.20;99.90;;;;;;4950740;29;20327;-67
2021/04/04 04:54:49;;;;;;;10.80;4.78;;;-0.30;99.90;;;;;;5033870;28;20031;-68
2021/04/04 04:57:15;;;;;;;10.50;3.67;;;-0.30;99.90;;;;;;4950850;29;20034;-67
2021/04/04 04:59:40;;;;;;;7.50;2.90;;;-0.30;99.90;;;;;;4950913;29;20030;-67
2021/04/04 05:02:10;;;;;;;8.05;3.00;;;-0.40;99.90;;;;;;4950665;28;20031;-68
2021/04/04 05:04:35;;;;;;;7.33;2.90;;;-0.40;99.90;;;;;;4950892;29;20080;-68
2021/04/04 05:07:02;;;;;;;7.55;3.50;;;-0.40;99.90;;;;;;4950738;29;20031;-68
2021/04/04 05:09:31;;;;;;;7.05;3.08;;;-0.40;99.90;;;;;;5016926;28;20035;-68
2021/04/04 05:11:59;;;;;;;10.18;3.15;;;-0.40;99.90;;;;;;4950372;28;20041;-68
2021/04/04 05:14:25;;;;;;;8.45;3.13;;;-0.40;99.90;;;;;;4950671;29;20039;-67
2021/04/04 05:16:53;;;;;;;11.23;3.80;;;-0.30;99.90;;;;;;4950368;29;20508;-68
2021/04/04 05:19:18;;;;;;;8.05;3.20;;;-0.30;99.90;;;;;;4950636;28;20073;-68
2021/04/04 05:21:44;;;;;;;13.52;4.80;;;-0.40;99.90;;;;;;4950283;28;20027;-68
2021/04/04 05:24:12;;;;;;;10.10;4.07;;;-0.30;99.90;;;;;;4950542;29;20164;-67
2021/04/04 05:26:46;;;;;;;12.38;4.47;;;-0.20;99.90;;;;;;4950520;29;20027;-68
2021/04/04 05:29:14;;;;;;;8.52;3.80;;;0.00;99.90;;;;;;4950484;29;20023;-68
2021/04/04 05:31:56;;;;;;;7.65;3.63;;;0.00;99.90;;;;;;4950326;29;20023;-68
2021/04/04 05:34:27;;;;;;;8.55;4.75;;;0.10;99.80;;;;;;4950453;29;20507;-67
2021/04/04 05:36:58;;;;;;;10.10;5.43;;;0.20;99.60;;;;;;4950443;28;20050;-68
2021/04/04 05:39:26;;;;;;;11.35;6.18;;;0.40;99.90;;;;;;4950669;29;20034;-68
2021/04/04 05:41:57;;;;;;;8.88;4.93;;;0.50;99.50;;;;;;4950287;29;20362;-68
2021/04/04 05:44:45;;;;;;;10.38;4.95;;;0.60;99.00;;;;;;4950506;28;20030;-68
2021/04/04 05:47:39;;;;;;;12.40;6.00;;;0.90;98.40;;;;;;4950452;29;20027;-68
2021/04/04 05:50:08;;;;;;;9.80;3.42;;;0.90;98.70;;;;;;5033168;28;20128;-67
2021/04/04 05:53:06;;;;;;;17.08;4.10;;;1.20;97.50;;;;;;4950123;28;20028;-68
2021/04/04 05:55:54;;;;;;;9.98;3.88;;;1.30;97.00;;;;;;4949185;29;20023;-68
2021/04/04 05:58:33;;;;;;;7.90;2.80;;;1.30;97.30;;;;;;4949864;29;20024;-68
2021/04/04 06:01:10;;;;;;;8.48;3.42;;;1.30;97.50;;;;;;4950065;29;20077;-68
2021/04/04 06:03:52;;;;;;;13.60;5.07;;;1.30;98.10;;;;;;4949837;29;20032;-68
2021/04/04 06:06:55;;;;;;;8.10;3.30;;;1.30;97.80;;;;;;4950026;28;20560;-68
2021/04/04 06:09:39;;;;;;;6.45;2.95;;;1.40;98.70;;;;;;4950010;29;20039;-68
2021/04/04 06:12:39;;;;;;;9.60;3.45;;;1.40;98.80;;;;;;4949776;28;20031;-68
2021/04/04 06:15:10;;;;;;;7.38;2.80;;;1.50;98.70;;;;;;4949813;29;20036;-68
2021/04/04 06:17:41;;;;;;;7.25;3.45;;;1.50;98.90;;;;;;4949712;28;20031;-68
2021/04/04 06:20:06;;;;;;;;;;;1.60;99.10;;;;;;4950568;29;20027;-68
2021/04/04 06:22:35;;;;;;;8.18;3.13;;;1.70;99.70;;;;;;4949547;28;19906;-69
2021/04/04 06:25:22;;;;;;;9.30;3.28;;;1.80;99.60;;;;;;4949764;29;20027;-68
2021/04/04 06:27:51;;;;;;;8.77;3.33;;;1.90;99.20;;;;;;4949764;28;20036;-68
2021/04/04 06:31:08;;;;;;;32.03;5.13;;;2.00;99.50;;;;;;4949722;29;20024;-68
2021/04/04 06:33:17;;;;;;;9.13;3.15;;;2.10;99.30;;;;;;4962712;28;20105;-68
2021/04/04 06:35:48;;;;;;;7.50;3.22;;;2.10;98.60;;;;;;4950103;29;20081;-68
2021/04/04 06:38:15;;;;;;;8.35;3.40;;;2.20;98.70;;;;;;4949621;28;20125;-68
2021/04/04 06:40:50;;;;;;;8.98;3.38;;;2.30;99.00;;;;;;5032204;28;20027;-68
2021/04/04 06:43:38;;;;;;;7.95;3.33;;;2.40;99.30;;;;;;4949296;28;20027;-68
2021/04/04 06:46:32;;;;;;;10.88;3.30;;;2.50;98.40;;;;;;4949504;29;20107;-68
2021/04/04 06:49:16;;;;;;;6.75;2.85;;;2.70;98.70;;;;;;5032157;28;20020;-68
2021/04/04 06:51:42;;;;;;;8.88;3.08;;;2.70;97.90;;;;;;4949399;28;20073;-68
2021/04/04 06:54:33;;;;;;;8.77;2.95;;;2.90;98.20;;;;;;4949306;29;20482;-68
2021/04/04 06:57:13;;;;;;;7.88;3.13;;;3.00;97.50;;;;;;4949217;29;20030;-68
2021/04/04 06:59:54;;;;;;;6.80;2.72;;;3.10;97.60;;;;;;4949655;28;20467;-68
2021/04/04 07:02:23;;;;;;;6.85;2.78;;;3.20;97.40;;;;;;4949303;28;20263;-68
2021/04/04 07:05:01;;;;;;;11.10;3.08;;;3.30;97.20;;;;;;4949793;28;20035;-68
2021/04/04 07:07:41;;;;;;;7.30;3.08;;;3.40;97.10;;;;;;4952532;28;20019;-68
2021/04/04 07:10:25;;;;;;;10.77;3.60;;;3.50;96.90;;;;;;4952098;28;20077;-68
2021/04/04 07:13:31;;;;;;;8.05;3.85;;;3.60;97.50;;;;;;4952351;28;20027;-68
2021/04/04 07:16:07;;;;;;;7.55;3.83;;;3.90;97.30;;;;;;4952472;28;20032;-68
2021/04/04 07:18:39;;;;;;;8.88;3.65;;;4.00;97.40;;;;;;4952551;29;20144;-68
2021/04/04 07:21:35;;;;;;;10.32;3.65;;;4.20;97.20;;;;;;4952408;28;20031;-69
2021/04/04 07:24:19;;;;;;;10.00;3.58;;;4.20;96.40;;;;;;4952316;28;20066;-68
2021/04/04 07:27:08;;;;;;;6.05;2.63;;;4.40;96.80;;;;;;4952158;29;20482;-69
2021/04/04 07:29:45;;;;;;;10.23;3.30;;;4.60;96.40;;;;;;4952708;28;20484;-69
2021/04/04 07:32:30;;;;;;;8.38;3.00;;;4.70;95.20;;;;;;4952067;29;20034;-68
2021/04/04 07:35:11;;;;;;;6.20;3.22;;;4.70;94.90;;;;;;4952302;29;20051;-68
2021/04/04 07:38:05;;;;;;;9.13;3.20;;;4.90;94.50;;;;;;4952226;28;20098;-68
2021/04/04 07:40:36;;;;;;;6.75;3.03;;;5.00;93.70;;;;;;4952139;28;20051;-68
2021/04/04 07:43:09;;;;;;;8.48;3.03;;;5.10;93.80;;;;;;4951873;29;20539;-68
2021/04/04 07:45:43;;;;;;;9.82;3.33;;;5.30;93.70;;;;;;4952271;29;20031;-68
2021/04/04 07:48:37;;;;;;;8.38;3.20;;;5.40;94.90;;;;;;4951968;29;20030;-68
2021/04/04 07:51:14;;;;;;;9.30;2.72;;;5.60;93.10;;;;;;4952493;29;20127;-68
2021/04/04 07:54:04;;;;;;;7.63;3.05;;;5.70;93.00;;;;;;4951836;29;20027;-68
2021/04/04 07:56:52;;;;;;;11.65;3.00;;;5.80;93.30;;;;;;4951646;28;20030;-68
2021/04/04 07:59:31;;;;;;;8.15;3.05;;;6.00;93.10;;;;;;4951849;29;20111;-68
2021/04/04 08:02:09;;;;;;;11.97;4.40;;;6.10;93.30;;;;;;5034414;28;20371;-68
2021/04/04 08:04:39;;;;;;;8.13;3.00;;;6.20;93.50;;;;;;5034541;28;20039;-68
2021/04/04 08:07:23;;;;;;;6.25;3.00;;;6.30;92.00;;;;;;5034560;28;20031;-68
2021/04/04 08:10:15;;;;;;;7.82;2.97;;;6.30;91.10;;;;;;5034558;28;20058;-67
2021/04/04 08:13:00;;;;;;;13.68;3.80;;;6.50;91.50;;;;;;5034322;28;20069;-67
2021/04/04 08:16:06;;;;;;;7.60;3.13;;;6.70;92.20;;;;;;4951712;28;20184;-68
2021/04/04 08:18:32;;;;;;;14.85;5.32;;;6.80;91.60;;;;;;4950568;28;20027;-69
2021/04/04 08:21:03;;;;;;;13.07;4.07;;;7.00;90.10;;;;;;4951457;29;20023;-69
2021/04/04 08:23:45;;;;;;;14.73;3.97;;;7.30;86.40;;;;;;4951144;29;20034;-67
2021/04/04 08:26:18;;;;;;;9.23;3.83;;;7.60;84.90;;;;;;4951352;29;20046;-68
2021/04/04 08:29:05;;;;;;;13.13;4.60;;;7.80;81.20;;;;;;4951305;28;20033;-67
2021/04/04 08:31:35;;;;;;;12.10;4.00;;;7.90;80.30;;;;;;4951039;28;20023;-68
2021/04/04 08:34:06;;;;;;;15.10;5.78;;;8.00;84.00;;;;;;4951103;29;20500;-68
2021/04/04 08:36:36;;;;;;;10.15;3.88;;;8.00;84.00;;;;;;4951192;29;20026;-68
2021/04/04 08:39:02;;;;;;;20.55;5.07;;;8.10;81.10;;;;;;4951275;29;20031;-68
2021/04/04 08:41:33;;;;;;;15.70;4.75;;;8.20;81.00;;;;;;4950957;29;20382;-68
2021/04/04 08:44:03;;;;;;;13.25;4.35;;;8.20;85.00;;;;;;5033502;28;20109;-68
2021/04/04 08:46:46;;;;;;;13.20;4.60;;;8.20;82.50;;;;;;4951039;29;20110;-67
2021/04/04 08:49:14;;;;;;;17.65;4.82;;;8.40;80.40;;;;;;4951569;28;20348;-68
2021/04/04 08:51:42;;;;;;;15.70;5.30;;;8.50;82.50;;;;;;4950752;28;20046;-68
2021/04/04 08:54:20;;;;;;;15.30;5.65;;;8.50;81.40;;;;;;4950811;29;20059;-68
2021/04/04 08:56:49;;;;;;;14.98;5.72;;;8.40;82.10;;;;;;4950915;29;20024;-68
2021/04/04 08:59:19;;;;;;;17.83;6.68;;;8.30;81.80;;;;;;5033591;28;20387;-68
2021/04/04 09:01:56;;;;;;;16.65;5.60;;;8.20;84.10;;;;;;4950541;29;20035;-68
2021/04/04 09:04:24;;;;;;;16.95;6.05;;;8.40;83.30;;;;;;4950903;29;20596;-68
2021/04/04 09:06:51;;;;;;;17.13;6.82;;;8.50;84.80;;;;;;4950535;28;20116;-68
2021/04/04 09:09:24;;;;;;;19.42;6.53;;;8.70;82.50;;;;;;4950857;28;20031;-68
2021/04/04 09:11:52;;;;;;;16.23;5.88;;;8.70;85.40;;;;;;4950600;29;20086;-67
2021/04/04 09:14:18;;;;;;;18.25;6.88;;;8.90;81.60;;;;;;4950602;29;20114;-67
2021/04/04 09:16:59;;;;;;;20.10;7.18;;;8.90;82.70;;;;;;4950732;28;20034;-68
2021/04/04 09:19:35;;;;;;;19.80;6.90;;;8.80;82.80;;;;;;4950741;29;20489;-68
2021/04/04 09:22:15;;;;;;;18.40;6.78;;;8.60;83.20;;;;;;4958985;28;20066;-68
2021/04/04 09:24:43;;;;;;;23.80;8.83;;;8.60;84.10;;;;;;4969762;28;20100;-68
2021/04/04 09:27:15;;;;;;;18.73;7.50;;;8.70;85.70;;;;;;4969762;28;20027;-69
2021/04/04 09:29:42;;;;;;;19.27;6.88;;;8.90;85.10;;;;;;4953927;28;20066;-68
2021/04/04 09:32:14;;;;;;;17.50;7.95;;;9.10;82.50;;;;;;4958474;28;20489;-69
2021/04/04 09:34:43;;;;;;;21.98;8.10;;;9.10;82.50;;;;;;4964861;28;20471;-68
2021/04/04 09:37:10;;;;;;;15.05;7.03;;;9.00;82.30;;;;;;4954055;28;20030;-68
2021/04/04 09:39:38;;;;;;;21.15;9.25;;;9.10;80.40;;;;;;5033694;28;20028;-68
2021/04/04 09:42:05;;;;;;;23.98;9.48;;;9.40;83.00;;;;;;4950351;29;20034;-68
2021/04/04 09:44:32;;;;;;;21.42;10.43;;;9.30;85.40;;;;;;4950490;28;20482;-69
2021/04/04 09:47:00;;;;;;;25.25;11.75;;;9.20;90.00;;;;;;4950524;29;20121;-69
2021/04/04 09:49:46;;;;;;;33.05;12.48;;;9.20;89.90;;;;;;4950575;28;20037;-68
2021/04/04 09:52:15;;;;;;;23.98;10.23;;;9.30;91.00;;;;;;4950295;29;20030;-68
2021/04/04 09:55:17;;;;;;;25.90;12.05;;;9.40;85.00;;;;;;5016448;28;20027;-69
2021/04/04 09:57:50;;;;;;;25.10;10.65;;;9.60;88.90;;;;;;4950101;29;20023;-69
2021/04/04 10:00:36;;;;;;;27.42;11.90;;;9.80;88.20;;;;;;4950196;28;20105;-69
2021/04/04 10:03:16;;;;;;;24.60;11.10;;;9.90;89.20;;;;;;5032674;28;20027;-69
2021/04/04 10:05:44;;;;;;;23.70;11.43;;;10.20;86.40;;;;;;4950111;28;20019;-69
2021/04/04 10:08:12;;;;;;;25.08;10.45;;;10.20;84.60;;;;;;4949941;28;20039;-69
2021/04/04 10:10:39;;;;;;;27.05;9.27;;;10.10;82.80;;;;;;4949769;29;20505;-69
2021/04/04 10:13:05;;;;;;;27.50;9.98;;;10.30;82.40;;;;;;4949488;28;20035;-68
2021/04/04 10:15:48;;;;;;;23.63;10.07;;;10.30;82.90;;;;;;4949880;29;20035;-69
2021/04/04 10:18:15;;;;;;;31.83;10.18;;;10.00;81.80;;;;;;4949610;29;20556;-68
2021/04/04 10:20:54;;;;;;;26.17;9.60;;;9.90;83.00;;;;;;4950218;29;20054;-68
2021/04/04 10:23:28;;;;;;;28.70;9.77;;;9.80;82.80;;;;;;4949792;29;20045;-68
2021/04/04 10:26:09;;;;;;;25.80;9.98;;;9.80;84.30;;;;;;4949847;28;20035;-69
2021/04/04 10:28:55;;;;;;;30.33;9.90;;;9.80;84.50;;;;;;4949719;28;20023;-68
2021/04/04 10:31:23;;;;;;;33.72;10.95;;;9.80;86.90;;;;;;4949444;28;20043;-69
2021/04/04 10:33:59;;;;;;;30.35;11.27;;;10.00;90.70;;;;;;5015535;28;20032;-69
2021/04/04 10:36:27;;;;;;;27.80;10.90;;;10.40;86.40;;;;;;4949421;28;20485;-69
2021/04/04 10:38:53;;;;;;;24.83;11.23;;;10.60;84.50;;;;;;4949375;28;20027;-69
2021/04/04 10:41:31;;;;;;;31.13;10.27;;;10.80;81.70;;;;;;4951242;28;20556;-68
2021/04/04 10:43:57;;;;;;;28.20;10.98;;;10.70;81.10;;;;;;4952851;28;20032;-68
2021/04/04 10:46:33;;;;;;;26.35;11.23;;;10.50;83.80;;;;;;4952876;29;20023;-68
2021/04/04 10:48:59;;;;;;;31.70;11.40;;;10.30;83.40;;;;;;4952913;29;20083;-68
2021/04/04 10:51:26;;;;;;;29.55;11.02;;;10.10;83.40;;;;;;4952569;28;20559;-68
2021/04/04 10:53:53;;;;;;;25.55;10.57;;;10.00;84.30;;;;;;4952652;28;20031;-68
2021/04/04 10:56:18;;;;;;;28.90;10.00;;;10.20;85.20;;;;;;4952611;28;20023;-69
2021/04/04 10:58:45;;;;;;;20.88;9.60;;;10.70;86.30;;;;;;4952824;29;20439;-69
2021/04/04 11:01:12;;;;;;;21.05;9.63;;;10.90;81.20;;;;;;4952622;28;20030;-69
2021/04/04 11:03:42;;;;;;;28.95;9.63;;;11.20;81.30;;;;;;4952501;28;20027;-69
2021/04/04 11:06:08;;;;;;;23.83;9.65;;;11.00;78.60;;;;;;4952632;28;20031;-69
2021/04/04 11:08:34;;;;;;;21.10;10.20;;;11.20;82.40;;;;;;5035373;28;20066;-69
2021/04/04 11:11:00;;;;;;;23.08;9.60;;;11.30;75.80;;;;;;4952488;29;20051;-69
2021/04/04 11:13:26;;;;;;;21.70;9.48;;;11.00;77.50;;;;;;4952160;28;20031;-69
2021/04/04 11:16:00;;;;;;;25.85;8.98;;;10.80;77.70;;;;;;4952418;28;20034;-69
2021/04/04 11:18:28;;;;;;;26.88;10.35;;;10.70;77.70;;;;;;4952302;29;20035;-69
2021/04/04 11:20:56;;;;;;;19.65;8.85;;;10.90;79.20;;;;;;4953120;28;20283;-69
2021/04/04 11:23:22;;;;;;;20.35;8.88;;;11.30;75.90;;;;;;5035572;28;20055;-69
2021/04/04 11:25:48;;;;;;;21.42;9.18;;;11.50;76.20;;;;;;5036468;28;20035;-68
2021/04/04 11:28:24;;;;;;;20.45;9.02;;;11.50;74.40;;;;;;4952464;28;20016;-69
2021/04/04 11:30:53;;;;;;;17.75;7.65;;;11.20;76.30;;;;;;4952356;29;20046;-68
2021/04/04 11:33:24;;;;;;;18.88;8.68;;;11.10;73.30;;;;;;4951918;29;20153;-68
2021/04/04 11:36:00;;;;;;;23.25;8.93;;;11.10;74.10;;;;;;4952067;29;20023;-68
2021/04/04 11:38:34;;;;;;;21.77;8.52;;;11.10;74.00;;;;;;4952062;29;20023;-69
2021/04/04 11:41:19;;;;;;;19.83;8.68;;;10.90;76.60;;;;;;4952207;28;20407;-68
2021/04/04 11:43:48;;;;;;;20.55;8.43;;;11.20;75.10;;;;;;5035122;28;20037;-68
2021/04/04 11:46:48;;;;;;;22.40;7.80;;;11.50;76.70;;;;;;4952004;28;20051;-68
2021/04/04 11:49:42;;;;;;;20.63;7.35;;;12.10;74.20;;;;;;4952160;28;20426;-69
2021/04/04 11:52:07;;;;;;;17.73;7.72;;;12.00;70.20;;;;;;4950959;28;20121;-69
2021/04/04 11:54:45;;;;;;;19.02;6.75;;;11.60;72.40;;;;;;4952236;28;20433;-69
2021/04/04 11:57:25;;;;;;;15.65;7.18;;;12.00;71.70;;;;;;5035027;28;20118;-68
2021/04/04 11:59:56;;;;;;;23.40;8.18;;;12.40;69.70;;;;;;5018396;28;20031;-69
2021/04/04 12:02:22;;;;;;;;;;;12.40;67.50;;;;;;5035216;28;20076;-68
2021/04/04 12:04:59;;;;;;;23.17;7.20;;;12.00;68.10;;;;;;4951928;29;19906;-69
2021/04/04 12:07:25;;;;;;;24.83;6.97;;;12.40;67.80;;;;;;4951879;28;20496;-69
2021/04/04 12:09:51;;;;;;;19.90;7.60;;;12.80;66.50;;;;;;5034645;28;20035;-69
2021/04/04 12:12:17;;;;;;;16.08;6.38;;;13.10;67.10;;;;;;4951733;29;20077;-69
2021/04/04 12:14:49;;;;;;;16.10;6.68;;;13.50;64.00;;;;;;5034525;28;20028;-69
2021/04/04 12:17:16;;;;;;;18.85;7.43;;;14.20;65.90;;;;;;4951415;29;20501;-69
2021/04/04 12:19:43;;;;;;;18.98;6.75;;;15.10;61.90;;;;;;4951527;29;20070;-69
2021/04/04 12:22:09;;;;;;;17.25;6.43;;;15.70;55.70;;;;;;4951538;28;20070;-69
2021/04/04 12:24:43;;;;;;;20.88;6.75;;;14.90;56.50;;;;;;4951752;28;20027;-69
2021/04/04 12:27:10;;;;;;;18.27;6.72;;;14.60;57.80;;;;;;4951418;29;20027;-70
2021/04/04 12:29:55;;;;;;;16.85;7.00;;;14.20;57.40;;;;;;4951476;29;20414;-69
2021/04/04 12:32:29;;;;;;;20.67;7.35;;;14.00;58.80;;;;;;5034017;28;20062;-69
2021/04/04 12:34:57;;;;;;;19.23;7.05;;;14.60;57.70;;;;;;4951198;29;20038;-69
2021/04/04 12:37:28;;;;;;;20.70;7.75;;;15.00;56.10;;;;;;4951173;29;20035;-69
2021/04/04 12:39:56;;;;;;;21.35;6.28;;;15.20;57.00;;;;;;4951313;28;20019;-69
2021/04/04 12:42:27;;;;;;;21.63;7.65;;;15.90;55.10;;;;;;4950886;28;20105;-69
2021/04/04 12:44:53;;;;;;;18.75;7.20;;;15.60;53.00;;;;;;4951518;28;20157;-69
2021/04/04 12:47:20;;;;;;;20.83;7.57;;;15.90;51.60;;;;;;4951019;29;20523;-69
2021/04/04 12:50:06;;;;;;;20.75;6.75;;;16.10;52.30;;;;;;4951314;29;20378;-69
2021/04/04 12:52:39;;;;;;;16.58;6.20;;;16.50;51.20;;;;;;5033625;28;20031;-69
2021/04/04 12:55:11;;;;;;;19.80;6.75;;;17.00;49.30;;;;;;4950798;28;20504;-69
2021/04/04 12:57:38;;;;;;;20.70;6.80;;;16.90;47.90;;;;;;5033667;28;20059;-69
2021/04/04 13:00:12;;;;;;;17.33;6.15;;;16.70;48.40;;;;;;4950855;28;20116;-69
2021/04/04 13:02:37;;;;;;;20.15;5.97;;;17.10;50.60;;;;;;4950515;29;20027;-69
2021/04/04 13:05:03;;;;;;;18.85;6.72;;;18.20;45.40;;;;;;4950460;29;20027;-69
2021/04/04 13:07:29;;;;;;;16.83;6.25;;;18.30;45.70;;;;;;4950640;29;20509;-69
2021/04/04 13:09:54;;;;;;;15.93;6.28;;;18.30;44.90;;;;;;4950697;28;20054;-69
2021/04/04 13:12:20;;;;;;;16.63;6.00;;;18.60;45.50;;;;;;4950650;28;20110;-69
2021/04/04 13:14:46;;;;;;;18.85;6.55;;;18.60;43.20;;;;;;4950827;28;20041;-69